Time;durP1;ratioP1;P1;durP2;ratioP2;P2;SDS_P1;SDS_P2;PMS_P1;PMS_P2;Temp;Humidity;BMP_temperature;BMP_pressure;BME280_temperature;BME280_humidity;BME280_pressure;Samples;Min_cycle;Max_cycle;Signal;HPM_P1;HPM_P2
2023/10/31 00:00:51;;;;;;;;;;;;;;;;;;112392;210;175561;-37
2023/10/31 00:03:33;;;;;;;;;;;;;;;;;;112494;210;39058;-36
2023/10/31 00:06:17;;;;;;;;;;;;;;;;;;112511;210;39449;-36
2023/10/31 00:08:57;;;;;;;;;;;;;;;;;;112495;210;42786;-37
2023/10/31 00:11:31;;;;;;;;;;;;;;;;;;112517;210;41558;-39
2023/10/31 00:14:06;;;;;;;;;;;;;;;;;;112503;210;38732;-39
2023/10/31 00:17:03;;;;;;;;;;;;;;;;;;112498;210;39264;-37
2023/10/31 00:19:37;;;;;;;;;;;;;;;;;;112487;210;42653;-38
2023/10/31 00:22:19;;;;;;;;;;;;;;;;;;112400;210;41576;-38
2023/10/31 00:24:55;;;;;;;;;;;;;;;;;;112528;210;38693;-38
2023/10/31 00:27:34;;;;;;;;;;;;;;;;;;112570;210;39390;-37
2023/10/31 00:30:13;;;;;;;;;;;;;;;;;;112497;210;47911;-38
2023/10/31 00:32:46;;;;;;;;;;;;;;;;;;112572;210;41384;-37
2023/10/31 00:35:19;;;;;;;;;;;;;;;;;;112486;210;38805;-37
2023/10/31 00:37:51;;;;;;;;;;;;;;;;;;112515;210;39507;-38
2023/10/31 00:40:25;;;;;;;;;;;;;;;;;;112542;210;48555;-38
2023/10/31 00:43:00;;;;;;;;;;;;;;;;;;112468;210;41948;-38
2023/10/31 00:45:36;;;;;;;;;;;;;;;;;;112453;210;38959;-38
2023/10/31 00:48:16;;;;;;;;;;;;;;;;;;112369;210;175525;-37
2023/10/31 00:50:51;;;;;;;;;;;;;;;;;;112503;210;49344;-37
2023/10/31 00:53:30;;;;;;;;;;;;;;;;;;113435;210;41372;-37
2023/10/31 00:56:05;;;;;;;;;;;;;;;;;;112478;210;38522;-37
2023/10/31 00:58:38;;;;;;;;;;;;;;;;;;112405;210;40847;-38
2023/10/31 01:01:13;;;;;;;;;;;;;;;;;;112409;210;43044;-37
2023/10/31 01:03:49;;;;;;;;;;;;;;;;;;112505;210;41885;-36
2023/10/31 01:06:23;;;;;;;;;;;;;;;;;;112324;210;38497;-37
2023/10/31 01:09:01;;;;;;;;;;;;;;;;;;112451;210;39552;-37
2023/10/31 01:11:35;;;;;;;;;;;;;;;;;;112486;210;50090;-37
2023/10/31 01:14:11;;;;;;;;;;;;;;;;;;112483;210;41462;-38
2023/10/31 01:16:46;;;;;;;;;;;;;;;;;;112369;210;39275;-37
2023/10/31 01:19:22;;;;;;;;;;;;;;;;;;112452;210;39310;-36
2023/10/31 01:21:56;;;;;;;;;;;;;;;;;;112463;210;48628;-38
2023/10/31 01:24:33;;;;;;;;;;;;;;;;;;112477;210;41376;-37
2023/10/31 01:27:15;;;;;;;;;;;;;;;;;;112508;210;38432;-37
2023/10/31 01:29:52;;;;;;;;;;;;;;;;;;112396;210;39299;-37
2023/10/31 01:32:28;;;;;;;;;;;;;;;;;;112471;210;42808;-37
2023/10/31 01:35:09;;;;;;;;;;;;;;;;;;112463;210;42779;-37
2023/10/31 01:37:43;;;;;;;;;;;;;;;;;;112472;210;38487;-37
2023/10/31 01:40:21;;;;;;;;;;;;;;;;;;112347;210;39736;-37
2023/10/31 01:42:59;;;;;;;;;;;;;;;;;;112438;210;42574;-37
2023/10/31 01:45:37;;;;;;;;;;;;;;;;;;112401;210;41608;-38
2023/10/31 01:48:13;;;;;;;;;;;;;;;;;;112377;210;38452;-37
2023/10/31 01:50:51;;;;;;;;;;;;;;;;;;112222;210;175218;-38
2023/10/31 01:53:26;;;;;;;;;;;;;;;;;;112433;210;42759;-37
2023/10/31 01:56:02;;;;;;;;;;;;;;;;;;112406;210;41666;-38
2023/10/31 01:58:41;;;;;;;;;;;;;;;;;;112436;210;39869;-37
2023/10/31 02:01:22;;;;;;;;;;;;;;;;;;112363;210;39268;-37
2023/10/31 02:03:58;;;;;;;;;;;;;;;;;;112388;210;42760;-37
2023/10/31 02:06:34;;;;;;;;;;;;;;;;;;112424;210;41688;-37
2023/10/31 02:09:12;;;;;;;;;;;;;;;;;;112415;210;39789;-37
2023/10/31 02:11:43;;;;;;;;;;;;;;;;;;112347;210;39552;-37
2023/10/31 02:14:23;;;;;;;;;;;;;;;;;;112413;210;44430;-38
2023/10/31 02:16:56;;;;;;;;;;;;;;;;;;112390;210;42831;-37
2023/10/31 02:19:32;;;;;;;;;;;;;;;;;;112462;210;38604;-37
2023/10/31 02:22:07;;;;;;;;;;;;;;;;;;112401;210;39381;-38
2023/10/31 02:24:45;;;;;;;;;;;;;;;;;;112477;210;42727;-37
2023/10/31 02:27:24;;;;;;;;;;;;;;;;;;112415;210;41433;-38
2023/10/31 02:30:01;;;;;;;;;;;;;;;;;;112470;210;38460;-38
2023/10/31 02:32:38;;;;;;;;;;;;;;;;;;112442;210;39283;-37
2023/10/31 02:35:18;;;;;;;;;;;;;;;;;;112414;210;42565;-37
2023/10/31 02:37:58;;;;;;;;;;;;;;;;;;112430;210;41362;-38
2023/10/31 02:40:34;;;;;;;;;;;;;;;;;;112433;210;38612;-38
2023/10/31 02:43:08;;;;;;;;;;;;;;;;;;112365;210;39625;-37
2023/10/31 02:45:44;;;;;;;;;;;;;;;;;;112428;210;42760;-38
2023/10/31 02:48:23;;;;;;;;;;;;;;;;;;112415;210;42065;-37
2023/10/31 02:50:58;;;;;;;;;;;;;;;;;;112456;210;38615;-36
2023/10/31 02:53:35;;;;;;;;;;;;;;;;;;112386;210;45201;-38
2023/10/31 02:56:08;;;;;;;;;;;;;;;;;;111992;210;534379;-37
2023/10/31 02:58:43;;;;;;;;;;;;;;;;;;112408;210;41569;-38
2023/10/31 03:01:20;;;;;;;;;;;;;;;;;;112420;210;38450;-37
2023/10/31 03:03:56;;;;;;;;;;;;;;;;;;112545;210;45731;-37
2023/10/31 03:06:30;;;;;;;;;;;;;;;;;;112382;210;42788;-38
2023/10/31 03:09:09;;;;;;;;;;;;;;;;;;112403;210;41758;-37
2023/10/31 03:11:44;;;;;;;;;;;;;;;;;;112378;210;38488;-37
2023/10/31 03:14:23;;;;;;;;;;;;;;;;;;112450;210;45501;-37
2023/10/31 03:17:02;;;;;;;;;;;;;;;;;;112434;210;43085;-37
2023/10/31 03:19:35;;;;;;;;;;;;;;;;;;112418;210;41432;-37
2023/10/31 03:22:08;;;;;;;;;;;;;;;;;;112367;210;39168;-38
2023/10/31 03:24:43;;;;;;;;;;;;;;;;;;112408;211;45977;-38
2023/10/31 03:27:20;;;;;;;;;;;;;;;;;;112437;211;42950;-38
2023/10/31 03:29:55;;;;;;;;;;;;;;;;;;112457;210;41606;-37
2023/10/31 03:32:29;;;;;;;;;;;;;;;;;;112371;210;40235;-37
2023/10/31 03:35:12;;;;;;;;;;;;;;;;;;112404;210;45580;-38
2023/10/31 03:37:46;;;;;;;;;;;;;;;;;;112399;210;42581;-36
2023/10/31 03:40:22;;;;;;;;;;;;;;;;;;112424;210;41384;-37
2023/10/31 03:42:58;;;;;;;;;;;;;;;;;;112360;210;38485;-38
2023/10/31 03:45:33;;;;;;;;;;;;;;;;;;112432;210;39380;-37
2023/10/31 03:48:12;;;;;;;;;;;;;;;;;;112387;210;42823;-38
2023/10/31 03:50:52;;;;;;;;;;;;;;;;;;112416;210;41401;-37
2023/10/31 03:53:26;;;;;;;;;;;;;;;;;;112353;210;38497;-37
2023/10/31 03:56:06;;;;;;;;;;;;;;;;;;112396;210;39380;-37
2023/10/31 03:58:42;;;;;;;;;;;;;;;;;;112425;210;42822;-37
2023/10/31 04:01:18;;;;;;;;;;;;;;;;;;112478;210;40437;-38
2023/10/31 04:03:55;;;;;;;;;;;;;;;;;;112377;210;38990;-39
2023/10/31 04:06:30;;;;;;;;;;;;;;;;;;112438;210;39320;-37
2023/10/31 04:09:08;;;;;;;;;;;;;;;;;;112275;210;175686;-37
2023/10/31 04:11:43;;;;;;;;;;;;;;;;;;112424;210;41451;-37
2023/10/31 04:14:19;;;;;;;;;;;;;;;;;;112367;210;38448;-37
2023/10/31 04:16:51;;;;;;;;;;;;;;;;;;112411;210;39337;-37
2023/10/31 04:19:25;;;;;;;;;;;;;;;;;;112433;210;42547;-37
2023/10/31 04:22:04;;;;;;;;;;;;;;;;;;112368;210;41633;-37
2023/10/31 04:24:42;;;;;;;;;;;;;;;;;;112350;210;38859;-37
2023/10/31 04:27:22;;;;;;;;;;;;;;;;;;112423;210;39327;-37
2023/10/31 04:29:54;;;;;;;;;;;;;;;;;;112275;210;42826;-35
2023/10/31 04:32:27;;;;;;;;;;;;;;;;;;112445;210;41388;-36
2023/10/31 04:35:00;;;;;;;;;;;;;;;;;;112408;210;39842;-35
2023/10/31 04:37:38;;;;;;;;;;;;;;;;;;112473;210;40781;-35
2023/10/31 04:40:13;;;;;;;;;;;;;;;;;;112421;210;42909;-35
2023/10/31 04:42:48;;;;;;;;;;;;;;;;;;112448;210;41582;-35
2023/10/31 04:45:22;;;;;;;;;;;;;;;;;;112405;210;38710;-35
2023/10/31 04:47:56;;;;;;;;;;;;;;;;;;112403;210;40640;-35
2023/10/31 04:50:36;;;;;;;;;;;;;;;;;;112422;210;42826;-35
2023/10/31 04:53:10;;;;;;;;;;;;;;;;;;112400;210;42913;-35
2023/10/31 04:55:49;;;;;;;;;;;;;;;;;;112415;210;38489;-35
2023/10/31 04:58:23;;;;;;;;;;;;;;;;;;112388;210;39341;-35
2023/10/31 05:01:03;;;;;;;;;;;;;;;;;;112400;210;42512;-37
2023/10/31 05:03:40;;;;;;;;;;;;;;;;;;112414;210;41565;-35
2023/10/31 05:06:22;;;;;;;;;;;;;;;;;;112396;210;39861;-35
2023/10/31 05:08:57;;;;;;;;;;;;;;;;;;112415;210;40635;-35
2023/10/31 05:11:33;;;;;;;;;;;;;;;;;;112414;210;42573;-35
2023/10/31 05:14:08;;;;;;;;;;;;;;;;;;112434;210;41462;-36
2023/10/31 05:16:44;;;;;;;;;;;;;;;;;;112293;210;175673;-36
2023/10/31 05:19:19;;;;;;;;;;;;;;;;;;112401;210;40824;-37
2023/10/31 05:21:53;;;;;;;;;;;;;;;;;;112439;210;42639;-37
2023/10/31 05:24:25;;;;;;;;;;;;;;;;;;112426;210;41783;-37
2023/10/31 05:27:02;;;;;;;;;;;;;;;;;;112366;210;38489;-38
2023/10/31 05:29:37;;;;;;;;;;;;;;;;;;112463;210;39345;-38
2023/10/31 05:32:15;;;;;;;;;;;;;;;;;;112408;210;42550;-37
2023/10/31 05:34:52;;;;;;;;;;;;;;;;;;112436;210;41852;-37
2023/10/31 05:37:29;;;;;;;;;;;;;;;;;;112412;210;44795;-37
2023/10/31 05:40:07;;;;;;;;;;;;;;;;;;112417;210;39293;-38
2023/10/31 05:42:43;;;;;;;;;;;;;;;;;;112410;210;42816;-37
2023/10/31 05:45:21;;;;;;;;;;;;;;;;;;112419;210;41669;-37
2023/10/31 05:47:56;;;;;;;;;;;;;;;;;;112392;210;44741;-37
2023/10/31 05:50:33;;;;;;;;;;;;;;;;;;112458;210;39625;-37
2023/10/31 05:53:13;;;;;;;;;;;;;;;;;;112440;210;42512;-37
2023/10/31 05:55:45;;;;;;;;;;;;;;;;;;112476;210;41780;-37
2023/10/31 05:58:23;;;;;;;;;;;;;;;;;;111721;210;893746;-37
2023/10/31 06:00:57;;;;;;;;;;;;;;;;;;112430;210;39507;-38
2023/10/31 06:03:31;;;;;;;;;;;;;;;;;;112380;210;42575;-38
2023/10/31 06:06:09;;;;;;;;;;;;;;;;;;112375;210;41404;-37
2023/10/31 06:08:51;;;;;;;;;;;;;;;;;;112399;210;44692;-37
2023/10/31 06:11:28;;;;;;;;;;;;;;;;;;112409;210;39263;-37
2023/10/31 06:14:05;;;;;;;;;;;;;;;;;;112372;210;44138;-38
2023/10/31 06:16:44;;;;;;;;;;;;;;;;;;112406;211;41618;-38
2023/10/31 06:19:20;;;;;;;;;;;;;;;;;;112470;210;38760;-37
2023/10/31 06:21:56;;;;;;;;;;;;;;;;;;112349;210;39799;-37
2023/10/31 06:24:32;;;;;;;;;;;;;;;;;;112413;210;43042;-37
2023/10/31 06:27:16;;;;;;;;;;;;;;;;;;112392;210;42195;-38
2023/10/31 06:29:55;;;;;;;;;;;;;;;;;;112381;210;38847;-37
2023/10/31 06:32:44;;;;;;;;;;;;;;;;;;112415;210;40709;-38
2023/10/31 06:35:18;;;;;;;;;;;;;;;;;;112445;210;43089;-37
2023/10/31 06:37:57;;;;;;;;;;;;;;;;;;112244;210;194866;-37
2023/10/31 06:40:31;;;;;;;;;;;;;;;;;;112445;210;38733;-38
2023/10/31 06:43:07;;;;;;;;;;;;;;;;;;112409;210;40621;-37
2023/10/31 06:45:40;;;;;;;;;;;;;;;;;;112462;210;44043;-38
2023/10/31 06:48:15;;;;;;;;;;;;;;;;;;112374;210;41412;-37
2023/10/31 06:50:51;;;;;;;;;;;;;;;;;;112464;210;38833;-37
2023/10/31 06:53:27;;;;;;;;;;;;;;;;;;112405;210;39549;-38
2023/10/31 06:56:00;;;;;;;;;;;;;;;;;;112412;210;42708;-37
2023/10/31 06:58:37;;;;;;;;;;;;;;;;;;112364;210;41662;-37
2023/10/31 07:01:18;;;;;;;;;;;;;;;;;;112298;210;192066;-37
2023/10/31 07:03:54;;;;;;;;;;;;;;;;;;112403;210;40762;-37
2023/10/31 07:06:27;;;;;;;;;;;;;;;;;;112291;210;175727;-38
2023/10/31 07:09:13;;;;;;;;;;;;;;;;;;112425;210;41401;-37
2023/10/31 07:11:55;;;;;;;;;;;;;;;;;;112449;210;38459;-38
2023/10/31 07:14:30;;;;;;;;;;;;;;;;;;112448;210;39329;-37
2023/10/31 07:17:06;;;;;;;;;;;;;;;;;;112429;210;43614;-37
2023/10/31 07:19:40;;;;;;;;;;;;;;;;;;112387;210;41542;-38
2023/10/31 07:22:15;;;;;;;;;;;;;;;;;;112412;210;38457;-39
2023/10/31 07:24:54;;;;;;;;;;;;;;;;;;112328;210;175651;-38
2023/10/31 07:27:29;;;;;;;;;;;;;;;;;;112441;210;43917;-37
2023/10/31 07:30:05;;;;;;;;;;;;;;;;;;112453;210;41613;-37
2023/10/31 07:32:40;;;;;;;;;;;;;;;;;;112441;210;38440;-38
2023/10/31 07:35:14;;;;;;;;;;;;;;;;;;112409;210;40937;-37
2023/10/31 07:37:51;;;;;;;;;;;;;;;;;;112424;210;43914;-37
2023/10/31 07:40:29;;;;;;;;;;;;;;;;;;112380;210;47423;-37
2023/10/31 07:43:06;;;;;;;;;;;;;;;;;;112448;210;38473;-37
2023/10/31 07:45:42;;;;;;;;;;;;;;;;;;112481;210;39396;-37
2023/10/31 07:48:19;;;;;;;;;;;;;;;;;;112415;210;44104;-37
2023/10/31 07:50:57;;;;;;;;;;;;;;;;;;112425;210;47896;-35
2023/10/31 07:53:37;;;;;;;;;;;;;;;;;;112548;210;40034;-35
2023/10/31 07:56:22;;;;;;;;;;;;;;;;;;112513;210;40939;-35
2023/10/31 07:58:58;;;;;;;;;;;;;;;;;;112490;210;43020;-35
2023/10/31 08:01:36;;;;;;;;;;;;;;;;;;112550;210;42938;-34
2023/10/31 08:04:11;;;;;;;;;;;;;;;;;;112479;210;39734;-35
2023/10/31 08:06:44;;;;;;;;;;;;;;;;;;112426;211;39613;-35
2023/10/31 08:09:21;;;;;;;;;;;;;;;;;;112451;210;44142;-35
2023/10/31 08:12:00;;;;;;;;;;;;;;;;;;112472;210;41949;-36
2023/10/31 08:14:34;;;;;;;;;;;;;;;;;;112556;210;38472;-35
2023/10/31 08:17:15;;;;;;;;;;;;;;;;;;112559;210;40676;-36
2023/10/31 08:19:53;;;;;;;;;;;;;;;;;;112519;210;44012;-35
2023/10/31 08:22:28;;;;;;;;;;;;;;;;;;112627;210;42955;-34
2023/10/31 08:25:05;;;;;;;;;;;;;;;;;;112592;210;39808;-35
2023/10/31 08:27:37;;;;;;;;;;;;;;;;;;112643;210;40814;-36
2023/10/31 08:30:16;;;;;;;;;;;;;;;;;;112542;210;42975;-35
2023/10/31 08:32:51;;;;;;;;;;;;;;;;;;112632;210;41400;-36
2023/10/31 08:35:33;;;;;;;;;;;;;;;;;;112540;210;38595;-37
2023/10/31 08:38:07;;;;;;;;;;;;;;;;;;112538;210;39322;-37
2023/10/31 08:40:48;;;;;;;;;;;;;;;;;;112544;210;42535;-37
2023/10/31 08:43:21;;;;;;;;;;;;;;;;;;112562;210;41738;-37
2023/10/31 08:45:59;;;;;;;;;;;;;;;;;;112533;210;38495;-38
2023/10/31 08:48:33;;;;;;;;;;;;;;;;;;112619;210;39480;-38
2023/10/31 08:51:06;;;;;;;;;;;;;;;;;;112521;210;42590;-36
2023/10/31 08:53:40;;;;;;;;;;;;;;;;;;112597;210;41368;-36
2023/10/31 08:56:19;;;;;;;;;;;;;;;;;;112536;210;39987;-35
2023/10/31 08:58:52;;;;;;;;;;;;;;;;;;112496;210;39314;-37
2023/10/31 09:01:29;;;;;;;;;;;;;;;;;;111730;210;893895;-37
2023/10/31 09:04:02;;;;;;;;;;;;;;;;;;112431;210;41644;-36
2023/10/31 09:06:37;;;;;;;;;;;;;;;;;;112497;210;38672;-37
2023/10/31 09:09:13;;;;;;;;;;;;;;;;;;112512;210;39582;-35
2023/10/31 09:11:46;;;;;;;;;;;;;;;;;;112513;210;42732;-36
2023/10/31 09:14:21;;;;;;;;;;;;;;;;;;112511;210;41619;-37
2023/10/31 09:16:57;;;;;;;;;;;;;;;;;;112517;210;38742;-35
2023/10/31 09:19:32;;;;;;;;;;;;;;;;;;112513;210;39742;-37
2023/10/31 09:22:09;;;;;;;;;;;;;;;;;;112376;210;42568;-37
2023/10/31 09:24:43;;;;;;;;;;;;;;;;;;112489;210;41626;-38
2023/10/31 09:27:22;;;;;;;;;;;;;;;;;;112515;210;38696;-37
2023/10/31 09:29:59;;;;;;;;;;;;;;;;;;112375;210;175156;-38
2023/10/31 09:32:32;;;;;;;;;;;;;;;;;;112464;210;42525;-37
2023/10/31 09:35:10;;;;;;;;;;;;;;;;;;112484;210;41390;-37
2023/10/31 09:37:48;;;;;;;;;;;;;;;;;;112499;210;38553;-37
2023/10/31 09:40:21;;;;;;;;;;;;;;;;;;112416;210;39280;-37
2023/10/31 09:42:56;;;;;;;;;;;;;;;;;;112416;210;48568;-37
2023/10/31 09:45:31;;;;;;;;;;;;;;;;;;112444;210;41425;-37
2023/10/31 09:48:09;;;;;;;;;;;;;;;;;;112456;210;38549;-37
2023/10/31 09:50:42;;;;;;;;;;;;;;;;;;112289;210;177302;-37
2023/10/31 09:53:15;;;;;;;;;;;;;;;;;;112475;210;42565;-37
2023/10/31 09:55:50;;;;;;;;;;;;;;;;;;112366;210;175256;-37
2023/10/31 09:58:25;;;;;;;;;;;;;;;;;;112433;210;38439;-37
2023/10/31 10:00:58;;;;;;;;;;;;;;;;;;112502;210;39669;-36
2023/10/31 10:03:37;;;;;;;;;;;;;;;;;;112405;210;48954;-37
2023/10/31 10:06:15;;;;;;;;;;;;;;;;;;112486;210;41638;-36
2023/10/31 10:08:50;;;;;;;;;;;;;;;;;;112478;210;38665;-38
2023/10/31 10:11:27;;;;;;;;;;;;;;;;;;112438;210;39516;-37
2023/10/31 10:14:08;;;;;;;;;;;;;;;;;;112359;210;175600;-35
2023/10/31 10:16:49;;;;;;;;;;;;;;;;;;112412;210;41629;-36
2023/10/31 10:19:27;;;;;;;;;;;;;;;;;;112411;210;38476;-37
2023/10/31 10:22:02;;;;;;;;;;;;;;;;;;112433;210;39587;-38
2023/10/31 10:24:44;;;;;;;;;;;;;;;;;;112463;210;42856;-37
2023/10/31 10:27:16;;;;;;;;;;;;;;;;;;112421;210;41440;-37
2023/10/31 10:29:51;;;;;;;;;;;;;;;;;;112398;210;38726;-38
2023/10/31 10:32:25;;;;;;;;;;;;;;;;;;112402;210;39561;-38
2023/10/31 10:35:00;;;;;;;;;;;;;;;;;;112404;210;42816;-38
2023/10/31 10:37:42;;;;;;;;;;;;;;;;;;112430;210;41405;-36
2023/10/31 10:40:21;;;;;;;;;;;;;;;;;;112406;210;38714;-39
2023/10/31 10:43:00;;;;;;;;;;;;;;;;;;112407;210;39584;-37
2023/10/31 10:45:36;;;;;;;;;;;;;;;;;;112438;210;42535;-38
2023/10/31 10:48:18;;;;;;;;;;;;;;;;;;112372;210;41398;-37
2023/10/31 10:50:57;;;;;;;;;;;;;;;;;;112422;210;38423;-37
2023/10/31 10:53:35;;;;;;;;;;;;;;;;;;112389;210;39292;-37
2023/10/31 10:56:17;;;;;;;;;;;;;;;;;;112140;210;380415;-37
2023/10/31 10:58:57;;;;;;;;;;;;;;;;;;112431;210;41854;-36
2023/10/31 11:01:32;;;;;;;;;;;;;;;;;;112377;210;38695;-36
2023/10/31 11:04:06;;;;;;;;;;;;;;;;;;112346;210;39488;-37
2023/10/31 11:06:41;;;;;;;;;;;;;;;;;;112409;210;43009;-36
2023/10/31 11:09:19;;;;;;;;;;;;;;;;;;112417;210;41543;-36
2023/10/31 11:11:53;;;;;;;;;;;;;;;;;;112418;210;38894;-36
2023/10/31 11:14:30;;;;;;;;;;;;;;;;;;112375;210;39293;-35
2023/10/31 11:17:16;;;;;;;;;;;;;;;;;;112416;210;42753;-36
2023/10/31 11:19:53;;;;;;;;;;;;;;;;;;112400;210;41589;-37
2023/10/31 11:22:39;;;;;;;;;;;;;;;;;;112423;210;38460;-37
2023/10/31 11:25:16;;;;;;;;;;;;;;;;;;112500;210;45311;-38
2023/10/31 11:28:13;;;;;;;;;;;;;;;;;;112379;210;42577;-38
2023/10/31 11:30:48;;;;;;;;;;;;;;;;;;112444;210;41686;-37
2023/10/31 11:33:24;;;;;;;;;;;;;;;;;;112315;210;39056;-37
2023/10/31 11:36:06;;;;;;;;;;;;;;;;;;112208;210;175580;-39
2023/10/31 11:38:42;;;;;;;;;;;;;;;;;;112364;210;42565;-37
2023/10/31 11:41:19;;;;;;;;;;;;;;;;;;112253;210;175269;-38
2023/10/31 11:43:58;;;;;;;;;;;;;;;;;;112391;210;38483;-38
2023/10/31 11:46:32;;;;;;;;;;;;;;;;;;112412;210;39328;-38
2023/10/31 11:49:11;;;;;;;;;;;;;;;;;;112373;210;42552;-37
2023/10/31 11:51:52;;;;;;;;;;;;;;;;;;111559;210;894091;-37
2023/10/31 11:54:28;;;;;;;;;;;;;;;;;;112258;210;38693;-37
2023/10/31 11:57:04;;;;;;;;;;;;;;;;;;112372;210;39622;-37
2023/10/31 11:59:42;;;;;;;;;;;;;;;;;;112297;210;42558;-36
2023/10/31 12:02:20;;;;;;;;;;;;;;;;;;112407;210;42784;-36
2023/10/31 12:05:09;;;;;;;;;;;;;;;;;;112366;210;39835;-36
2023/10/31 12:07:51;;;;;;;;;;;;;;;;;;112390;210;39370;-36
2023/10/31 12:10:29;;;;;;;;;;;;;;;;;;112395;210;42575;-36
2023/10/31 12:13:08;;;;;;;;;;;;;;;;;;112434;210;41371;-36
2023/10/31 12:15:53;;;;;;;;;;;;;;;;;;112327;210;38708;-36
2023/10/31 12:18:32;;;;;;;;;;;;;;;;;;112418;210;39457;-36
2023/10/31 12:21:10;;;;;;;;;;;;;;;;;;112431;210;42550;-36
2023/10/31 12:23:43;;;;;;;;;;;;;;;;;;112452;210;41359;-36
2023/10/31 12:26:25;;;;;;;;;;;;;;;;;;112362;210;38967;-36
2023/10/31 12:29:13;;;;;;;;;;;;;;;;;;112375;210;39250;-36
2023/10/31 12:31:51;;;;;;;;;;;;;;;;;;112414;210;42626;-36
2023/10/31 12:34:27;;;;;;;;;;;;;;;;;;112325;211;42899;-36
2023/10/31 12:37:01;;;;;;;;;;;;;;;;;;112450;211;38400;-36
2023/10/31 12:39:35;;;;;;;;;;;;;;;;;;112429;210;39773;-36
2023/10/31 12:42:10;;;;;;;;;;;;;;;;;;112415;210;42587;-36
2023/10/31 12:44:44;;;;;;;;;;;;;;;;;;112389;210;41453;-36
2023/10/31 12:47:26;;;;;;;;;;;;;;;;;;112444;210;38709;-36
2023/10/31 12:50:15;;;;;;;;;;;;;;;;;;112468;210;39547;-36
2023/10/31 12:52:54;;;;;;;;;;;;;;;;;;112434;210;42674;-36
2023/10/31 12:55:30;;;;;;;;;;;;;;;;;;112381;210;41413;-36
2023/10/31 12:58:02;;;;;;;;;;;;;;;;;;112371;210;38737;-37
2023/10/31 13:00:38;;;;;;;;;;;;;;;;;;112450;210;39535;-37
2023/10/31 13:03:13;;;;;;;;;;;;;;;;;;112452;210;42988;-37
2023/10/31 13:05:51;;;;;;;;;;;;;;;;;;112406;210;41660;-37
2023/10/31 13:08:28;;;;;;;;;;;;;;;;;;112383;210;38593;-36
2023/10/31 13:11:09;;;;;;;;;;;;;;;;;;112415;210;39529;-36
2023/10/31 13:13:46;;;;;;;;;;;;;;;;;;112396;210;42969;-36
2023/10/31 13:16:22;;;;;;;;;;;;;;;;;;112386;210;41656;-37
2023/10/31 13:18:58;;;;;;;;;;;;;;;;;;112420;210;40296;-36
2023/10/31 13:21:35;;;;;;;;;;;;;;;;;;112399;210;39277;-36
2023/10/31 13:24:09;;;;;;;;;;;;;;;;;;112411;210;42798;-36
2023/10/31 13:26:41;;;;;;;;;;;;;;;;;;112259;210;41670;-36
2023/10/31 13:29:15;;;;;;;;;;;;;;;;;;112491;210;38444;-36
2023/10/31 13:31:53;;;;;;;;;;;;;;;;;;112407;210;40359;-36
2023/10/31 13:34:32;;;;;;;;;;;;;;;;;;112437;210;42971;-36
2023/10/31 13:37:08;;;;;;;;;;;;;;;;;;112278;210;175657;-36
2023/10/31 13:39:45;;;;;;;;;;;;;;;;;;112437;210;38459;-36
2023/10/31 13:42:20;;;;;;;;;;;;;;;;;;112462;210;39591;-37
2023/10/31 13:44:59;;;;;;;;;;;;;;;;;;112404;210;42874;-36
2023/10/31 13:47:38;;;;;;;;;;;;;;;;;;112441;210;41767;-36
2023/10/31 13:50:15;;;;;;;;;;;;;;;;;;112435;210;38503;-36
2023/10/31 13:52:52;;;;;;;;;;;;;;;;;;112440;210;39575;-36
2023/10/31 13:55:28;;;;;;;;;;;;;;;;;;112437;210;42620;-37
2023/10/31 13:58:02;;;;;;;;;;;;;;;;;;112254;210;194980;-37
2023/10/31 14:00:39;;;;;;;;;;;;;;;;;;112443;210;38545;-37
2023/10/31 14:03:12;;;;;;;;;;;;;;;;;;112395;210;39529;-36
2023/10/31 14:05:48;;;;;;;;;;;;;;;;;;112427;210;42586;-36
2023/10/31 14:08:26;;;;;;;;;;;;;;;;;;112360;210;41621;-37
2023/10/31 14:11:04;;;;;;;;;;;;;;;;;;112478;210;38477;-36
2023/10/31 14:13:40;;;;;;;;;;;;;;;;;;112493;210;40669;-37
2023/10/31 14:16:18;;;;;;;;;;;;;;;;;;112421;210;42800;-36
2023/10/31 14:18:52;;;;;;;;;;;;;;;;;;112471;210;47688;-39
2023/10/31 14:21:27;;;;;;;;;;;;;;;;;;112510;210;38432;-42
2023/10/31 14:24:03;;;;;;;;;;;;;;;;;;112476;210;39503;-39
2023/10/31 14:26:43;;;;;;;;;;;;;;;;;;112386;210;42759;-39
2023/10/31 14:29:16;;;;;;;;;;;;;;;;;;112475;210;41382;-38
2023/10/31 14:31:49;;;;;;;;;;;;;;;;;;112467;210;38739;-38
2023/10/31 14:34:22;;;;;;;;;;;;;;;;;;112314;210;39541;-39
2023/10/31 14:37:05;;;;;;;;;;;;;;;;;;112400;210;44287;-39
2023/10/31 14:39:43;;;;;;;;;;;;;;;;;;112431;210;41369;-39
2023/10/31 14:42:15;;;;;;;;;;;;;;;;;;112479;210;38795;-39
2023/10/31 14:44:50;;;;;;;;;;;;;;;;;;112463;210;39317;-39
2023/10/31 14:47:25;;;;;;;;;;;;;;;;;;112382;210;42796;-38
2023/10/31 14:49:58;;;;;;;;;;;;;;;;;;112426;210;41424;-41
2023/10/31 14:52:37;;;;;;;;;;;;;;;;;;112385;210;38799;-42
2023/10/31 14:55:12;;;;;;;;;;;;;;;;;;112399;210;39341;-38
2023/10/31 14:57:45;;;;;;;;;;;;;;;;;;112383;210;42809;-41
2023/10/31 15:00:20;;;;;;;;;;;;;;;;;;112420;210;41705;-40
2023/10/31 15:02:53;;;;;;;;;;;;;;;;;;112407;210;38976;-38
2023/10/31 15:05:30;;;;;;;;;;;;;;;;;;112335;210;39807;-38
2023/10/31 15:08:06;;;;;;;;;;;;;;;;;;112289;210;42646;-38
2023/10/31 15:10:40;;;;;;;;;;;;;;;;;;112364;210;41456;-39
2023/10/31 15:13:15;;;;;;;;;;;;;;;;;;112345;210;38791;-40
2023/10/31 15:15:52;;;;;;;;;;;;;;;;;;112365;210;39500;-40
2023/10/31 15:18:35;;;;;;;;;;;;;;;;;;112369;210;42953;-40
2023/10/31 15:21:10;;;;;;;;;;;;;;;;;;112388;210;41525;-40
2023/10/31 15:23:42;;;;;;;;;;;;;;;;;;112386;210;39100;-40
2023/10/31 15:26:19;;;;;;;;;;;;;;;;;;112390;210;39903;-40
2023/10/31 15:28:57;;;;;;;;;;;;;;;;;;112335;210;42547;-40
2023/10/31 15:31:33;;;;;;;;;;;;;;;;;;112423;210;41388;-40
2023/10/31 15:34:09;;;;;;;;;;;;;;;;;;112351;210;38928;-40
2023/10/31 15:36:51;;;;;;;;;;;;;;;;;;113617;210;39292;-40
2023/10/31 15:39:27;;;;;;;;;;;;;;;;;;112390;210;42550;-40
2023/10/31 15:42:01;;;;;;;;;;;;;;;;;;112319;210;42790;-38
2023/10/31 15:44:38;;;;;;;;;;;;;;;;;;112449;210;38408;-38
2023/10/31 15:47:18;;;;;;;;;;;;;;;;;;112522;210;40780;-38
2023/10/31 15:49:52;;;;;;;;;;;;;;;;;;112489;210;42778;-38
2023/10/31 15:52:27;;;;;;;;;;;;;;;;;;112560;210;43051;-36
2023/10/31 15:55:03;;;;;;;;;;;;;;;;;;112472;210;39778;-37
2023/10/31 15:57:42;;;;;;;;;;;;;;;;;;112535;210;39587;-40
2023/10/31 16:00:17;;;;;;;;;;;;;;;;;;112392;210;175670;-41
2023/10/31 16:02:50;;;;;;;;;;;;;;;;;;111665;210;893953;-39
2023/10/31 16:05:26;;;;;;;;;;;;;;;;;;112442;210;176131;-39
2023/10/31 16:08:04;;;;;;;;;;;;;;;;;;112513;210;39279;-39
2023/10/31 16:10:38;;;;;;;;;;;;;;;;;;112498;210;44026;-39
2023/10/31 16:13:15;;;;;;;;;;;;;;;;;;112507;210;41693;-39
2023/10/31 16:15:50;;;;;;;;;;;;;;;;;;111783;210;894489;-38
2023/10/31 16:18:27;;;;;;;;;;;;;;;;;;112483;210;40821;-39
2023/10/31 16:21:04;;;;;;;;;;;;;;;;;;111944;210;894980;-40
2023/10/31 16:23:41;;;;;;;;;;;;;;;;;;112528;210;41455;-39
2023/10/31 16:26:17;;;;;;;;;;;;;;;;;;112570;210;38870;-38
2023/10/31 16:28:53;;;;;;;;;;;;;;;;;;112520;210;39311;-38
2023/10/31 16:31:28;;;;;;;;;;;;;;;;;;112568;210;49227;-38
2023/10/31 16:34:04;;;;;;;;;;;;;;;;;;112525;210;41499;-38
2023/10/31 16:36:39;;;;;;;;;;;;;;;;;;112515;210;38590;-38
2023/10/31 16:39:15;;;;;;;;;;;;;;;;;;112467;210;39551;-39
2023/10/31 16:41:52;;;;;;;;;;;;;;;;;;112478;210;49213;-38
2023/10/31 16:44:26;;;;;;;;;;;;;;;;;;112548;210;42004;-38
2023/10/31 16:47:02;;;;;;;;;;;;;;;;;;112299;210;38902;-37
2023/10/31 16:49:41;;;;;;;;;;;;;;;;;;112499;210;40217;-38
2023/10/31 16:52:17;;;;;;;;;;;;;;;;;;112457;210;44094;-38
2023/10/31 16:54:51;;;;;;;;;;;;;;;;;;112364;210;176914;-38
2023/10/31 16:57:28;;;;;;;;;;;;;;;;;;112470;210;38436;-38
2023/10/31 17:00:09;;;;;;;;;;;;;;;;;;112426;210;39649;-38
2023/10/31 17:02:43;;;;;;;;;;;;;;;;;;112447;210;44069;-38
2023/10/31 17:05:20;;;;;;;;;;;;;;;;;;112522;210;41535;-38
2023/10/31 17:07:55;;;;;;;;;;;;;;;;;;112488;210;38498;-38
2023/10/31 17:10:29;;;;;;;;;;;;;;;;;;112295;210;175318;-38
2023/10/31 17:13:05;;;;;;;;;;;;;;;;;;112424;210;42866;-38
2023/10/31 17:15:40;;;;;;;;;;;;;;;;;;112489;210;41559;-38
2023/10/31 17:18:18;;;;;;;;;;;;;;;;;;112487;210;38687;-38
2023/10/31 17:20:53;;;;;;;;;;;;;;;;;;112398;210;39263;-38
2023/10/31 17:23:26;;;;;;;;;;;;;;;;;;112480;210;42707;-38
2023/10/31 17:26:04;;;;;;;;;;;;;;;;;;112498;210;41647;-38
2023/10/31 17:28:38;;;;;;;;;;;;;;;;;;112484;210;38693;-38
2023/10/31 17:31:15;;;;;;;;;;;;;;;;;;112487;210;39489;-38
2023/10/31 17:33:49;;;;;;;;;;;;;;;;;;112380;210;175295;-38
2023/10/31 17:36:27;;;;;;;;;;;;;;;;;;112452;210;41785;-38
2023/10/31 17:39:10;;;;;;;;;;;;;;;;;;112473;210;38500;-38
2023/10/31 17:41:47;;;;;;;;;;;;;;;;;;112318;210;176880;-38
2023/10/31 17:44:27;;;;;;;;;;;;;;;;;;112475;210;42693;-38
2023/10/31 17:47:02;;;;;;;;;;;;;;;;;;112409;210;41600;-38